Time;durP1;ratioP1;P1;durP2;ratioP2;P2;SDS_P1;SDS_P2;PMS_P1;PMS_P2;Temp;Humidity;BMP_temperature;BMP_pressure;BME280_temperature;BME280_humidity;BME280_pressure;Samples;Min_cycle;Max_cycle;Signal;HPM_P1;HPM_P2
2023/04/24 00:00:17;;;;;;;9.57;6.27;;;;;;;12.56;70.11;94590.44;5051541;28;20195;-76
2023/04/24 00:02:47;;;;;;;15.80;7.33;;;;;;;12.47;70.95;94593.41;5051402;28;20201;-76
2023/04/24 00:05:15;;;;;;;12.45;7.22;;;;;;;12.23;71.67;94577.78;5050879;28;20462;-77
2023/04/24 00:07:41;;;;;;;14.13;7.75;;;;;;;12.18;72.86;94583.75;5050683;28;20426;-76
2023/04/24 00:10:08;;;;;;;9.77;6.97;;;;;;;12.17;72.74;94582.16;5051094;28;20179;-76
2023/04/24 00:12:33;;;;;;;10.13;6.37;;;;;;;12.13;74.21;94580.97;5051261;28;20167;-76
2023/04/24 00:14:59;;;;;;;32.17;7.90;;;;;;;11.94;75.48;94572.34;5051071;28;20228;-76
2023/04/24 00:17:24;;;;;;;14.67;7.03;;;;;;;11.84;75.84;94564.19;5051232;28;20174;-76
2023/04/24 00:19:51;;;;;;;9.30;6.93;;;;;;;11.89;76.01;94576.69;5051176;28;20531;-76
2023/04/24 00:22:17;;;;;;;9.60;6.90;;;;;;;11.87;76.11;94576.09;5050986;28;20199;-76
2023/04/24 00:24:43;;;;;;;15.60;8.43;;;;;;;11.83;76.37;94580.22;5051079;28;20224;-76
2023/04/24 00:27:08;;;;;;;9.30;6.47;;;;;;;11.71;76.79;94570.41;5051265;28;20171;-76
2023/04/24 00:29:34;;;;;;;13.43;8.65;;;;;;;11.73;76.73;94586.00;5049529;28;20958;-76
2023/04/24 00:32:00;;;;;;;18.47;6.80;;;;;;;11.72;76.16;94581.78;5051263;28;20167;-76
2023/04/24 00:34:25;;;;;;;14.20;7.20;;;;;;;11.65;75.72;94570.50;5050984;28;20640;-76
2023/04/24 00:36:52;;;;;;;15.03;6.43;;;;;;;11.71;76.16;94574.88;5050312;28;20640;-76
2023/04/24 00:39:18;;;;;;;10.33;7.20;;;;;;;11.64;76.67;94566.25;5050843;28;20942;-76
2023/04/24 00:41:45;;;;;;;10.67;7.37;;;;;;;11.55;76.89;94551.78;5050732;28;20309;-76
2023/04/24 00:44:10;;;;;;;11.00;7.37;;;;;;;11.66;76.99;94566.84;5050884;28;20183;-76
2023/04/24 00:46:36;;;;;;;15.07;7.43;;;;;;;11.53;77.51;94540.66;5050891;28;20183;-76
2023/04/24 00:49:02;;;;;;;15.23;7.33;;;;;;;11.70;77.19;94568.00;5051181;28;20232;-76
2023/04/24 00:51:28;;;;;;;13.00;7.20;;;;;;;11.72;77.16;94571.22;5050524;28;20277;-76
2023/04/24 00:53:53;;;;;;;8.50;6.27;;;;;;;11.68;76.25;94562.13;5050680;28;20171;-76
2023/04/24 00:56:19;;;;;;;11.03;6.60;;;;;;;11.75;75.82;94568.19;5050860;28;20173;-76
2023/04/24 00:58:45;;;;;;;10.90;6.10;;;;;;;11.79;75.25;94568.50;5050930;28;20182;-76
2023/04/24 01:01:11;;;;;;;16.07;8.03;;;;;;;11.81;75.29;94569.09;5043522;28;20172;-76
2023/04/24 01:03:37;;;;;;;13.33;7.10;;;;;;;11.79;75.46;94573.78;5041338;28;20547;-76
2023/04/24 01:06:05;;;;;;;17.03;8.10;;;;;;;11.82;75.50;94570.72;5045013;28;20206;-76
2023/04/24 01:08:30;;;;;;;9.67;6.87;;;;;;;11.68;76.37;94539.22;5030887;28;20677;-76
2023/04/24 01:10:57;;;;;;;9.97;6.03;;;;;;;11.87;75.79;94547.09;5030708;28;20271;-76
2023/04/24 01:13:22;;;;;;;9.43;5.53;;;;;;;11.70;74.27;94528.44;5030771;28;20172;-76
2023/04/24 01:15:48;;;;;;;10.73;5.70;;;;;;;11.82;75.44;94539.06;5030598;28;20191;-76
2023/04/24 01:18:14;;;;;;;14.63;6.25;;;;;;;11.70;76.74;94539.78;5036324;28;20415;-76
2023/04/24 01:20:42;;;;;;;15.68;9.55;;;;;;;11.14;81.60;94540.16;5049710;28;20418;-76
2023/04/24 01:23:08;;;;;;;15.93;9.10;;;;;;;10.95;83.08;94543.84;5037755;28;20200;-76
2023/04/24 01:25:34;;;;;;;15.80;7.97;;;;;;;11.03;83.36;94534.84;5030740;28;20176;-76
2023/04/24 01:28:00;;;;;;;12.87;7.97;;;;;;;11.13;82.88;94522.75;5038933;28;20573;-76
2023/04/24 01:30:31;;;;;;;11.60;7.13;;;;;;;11.30;79.74;94536.13;5029973;28;20421;-76
2023/04/24 01:32:56;;;;;;;14.07;8.70;;;;;;;11.16;80.49;94521.47;5037601;28;20923;-76
2023/04/24 01:35:22;;;;;;;8.30;6.07;;;;;;;11.25;79.38;94535.97;5030556;28;20176;-76
2023/04/24 01:37:47;;;;;;;13.13;6.40;;;;;;;11.26;79.28;94533.09;5038944;28;20179;-76
2023/04/24 01:40:13;;;;;;;10.00;6.43;;;;;;;11.27;78.54;94526.81;5030600;28;20179;-76
2023/04/24 01:42:41;;;;;;;10.60;7.00;;;;;;;11.28;79.05;94527.63;5036788;28;20260;-76
2023/04/24 01:45:11;;;;;;;16.63;7.03;;;;;;;11.20;79.13;94520.03;5032026;28;20203;-76
2023/04/24 01:47:36;;;;;;;12.50;7.30;;;;;;;11.31;77.38;94535.09;5031224;28;20656;-76
2023/04/24 01:50:03;;;;;;;8.30;5.97;;;;;;;11.31;75.83;94527.19;5041762;28;20494;-76
2023/04/24 01:52:30;;;;;;;7.60;4.87;;;;;;;11.27;71.86;94526.00;5033817;28;20518;-75
2023/04/24 01:54:56;;;;;;;9.47;4.73;;;;;;;11.32;71.72;94524.34;5048469;28;20604;-76
2023/04/24 01:57:22;;;;;;;8.50;5.30;;;;;;;11.34;72.03;94524.09;5053596;28;20187;-76
2023/04/24 01:59:48;;;;;;;10.23;5.03;;;;;;;11.38;71.70;94530.53;5053800;28;20305;-76
2023/04/24 02:02:13;;;;;;;6.03;4.73;;;;;;;11.44;69.64;94537.53;5053496;28;21074;-76
2023/04/24 02:04:39;;;;;;;8.93;4.70;;;;;;;11.33;70.45;94522.47;5053562;28;20411;-76
2023/04/24 02:07:04;;;;;;;11.63;4.73;;;;;;;11.37;70.16;94536.03;5053803;28;20224;-75
2023/04/24 02:09:30;;;;;;;7.63;4.30;;;;;;;11.35;70.52;94541.50;5053583;28;20613;-76
2023/04/24 02:11:56;;;;;;;10.27;5.27;;;;;;;11.24;74.61;94529.09;5053809;28;20179;-76
2023/04/24 02:14:21;;;;;;;8.57;5.33;;;;;;;11.10;74.99;94525.00;5035902;28;20272;-76
2023/04/24 02:16:47;;;;;;;17.53;5.43;;;;;;;11.00;74.86;94517.63;5053621;28;20187;-76
2023/04/24 02:19:12;;;;;;;7.60;5.30;;;;;;;11.02;76.60;94531.38;5053477;28;20179;-75
2023/04/24 02:21:37;;;;;;;8.50;5.37;;;;;;;10.95;76.77;94531.47;5053384;28;20257;-76
2023/04/24 02:24:03;;;;;;;5.83;5.23;;;;;;;10.90;77.36;94526.06;5053079;28;20235;-75
2023/04/24 02:26:28;;;;;;;7.00;5.60;;;;;;;10.71;78.41;94506.03;5053191;28;20186;-76
2023/04/24 02:28:54;;;;;;;14.30;5.37;;;;;;;10.82;78.13;94528.97;5053172;28;20171;-76
2023/04/24 02:31:19;;;;;;;9.70;5.63;;;;;;;10.71;78.32;94506.03;5053098;28;20201;-75
2023/04/24 02:33:45;;;;;;;9.47;5.53;;;;;;;10.72;78.77;94520.81;5053308;28;20270;-76
2023/04/24 02:36:10;;;;;;;12.87;6.63;;;;;;;10.70;78.50;94514.16;5053152;28;20183;-76
2023/04/24 02:38:36;;;;;;;10.20;7.23;;;;;;;10.65;78.35;94499.00;5052773;28;20584;-75
2023/04/24 02:41:02;;;;;;;10.43;6.97;;;;;;;10.49;78.77;94475.91;5052731;28;20183;-76
2023/04/24 02:43:28;;;;;;;12.43;7.40;;;;;;;10.53;78.32;94498.16;5052634;28;20260;-76
2023/04/24 02:45:53;;;;;;;13.47;6.87;;;;;;;10.46;78.63;94500.06;5052666;28;20183;-76
2023/04/24 02:48:20;;;;;;;13.00;8.17;;;;;;;10.41;78.98;94502.50;5052660;28;20178;-75
2023/04/24 02:50:46;;;;;;;11.13;7.60;;;;;;;10.38;79.91;94495.84;5053160;28;20194;-77
2023/04/24 02:53:11;;;;;;;14.53;7.77;;;;;;;10.29;80.45;94488.50;5052672;28;20227;-77
2023/04/24 02:55:37;;;;;;;15.40;7.97;;;;;;;10.33;80.47;94489.66;5044282;28;20185;-76
2023/04/24 02:58:02;;;;;;;15.70;8.33;;;;;;;10.29;80.91;94496.38;5050321;28;20175;-77
2023/04/24 03:00:27;;;;;;;11.87;7.47;;;;;;;10.26;81.62;94491.53;5042979;28;20187;-75
2023/04/24 03:02:53;;;;;;;17.10;8.50;;;;;;;10.26;81.37;94497.59;5039074;28;20271;-76
2023/04/24 03:05:19;;;;;;;11.93;7.43;;;;;;;10.29;81.01;94506.91;5039877;28;20210;-76
2023/04/24 03:07:45;;;;;;;12.13;8.07;;;;;;;10.17;80.07;94499.72;5046215;28;20175;-75
2023/04/24 03:10:10;;;;;;;10.73;7.53;;;;;;;10.15;79.39;94517.50;5039489;28;20697;-76
2023/04/24 03:12:36;;;;;;;11.70;8.40;;;;;;;9.97;80.15;94488.53;5043290;28;20207;-76
2023/04/24 03:15:01;;;;;;;10.80;7.53;;;;;;;10.06;80.06;94513.53;5032550;28;20175;-75
2023/04/24 03:17:27;;;;;;;11.40;7.97;;;;;;;9.86;80.36;94514.75;5038405;28;20457;-75
2023/04/24 03:19:52;;;;;;;11.47;7.67;;;;;;;9.74;80.85;94504.09;5031736;28;20621;-76
2023/04/24 03:22:17;;;;;;;14.27;9.07;;;;;;;9.86;80.56;94512.88;5031542;28;20242;-75
2023/04/24 03:24:43;;;;;;;13.13;7.73;;;;;;;9.82;80.36;94514.34;5042348;28;20180;-76
2023/04/24 03:27:08;;;;;;;11.20;8.00;;;;;;;9.63;81.56;94502.16;5049237;28;20498;-76
2023/04/24 03:29:34;;;;;;;14.33;7.20;;;;;;;9.75;81.63;94508.34;5038084;28;20183;-75
2023/04/24 03:31:59;;;;;;;14.03;8.17;;;;;;;9.82;81.61;94511.72;5031846;28;20638;-75
2023/04/24 03:34:25;;;;;;;18.70;10.17;;;;;;;9.91;80.95;94515.69;5031212;28;20425;-75
2023/04/24 03:36:50;;;;;;;14.23;7.80;;;;;;;9.88;81.33;94500.34;5040685;28;20258;-76
2023/04/24 03:39:15;;;;;;;13.80;8.20;;;;;;;10.04;80.84;94512.13;5040506;28;20574;-76
2023/04/24 03:41:41;;;;;;;17.37;9.00;;;;;;;9.97;80.07;94499.06;5036316;28;20760;-77
2023/04/24 03:44:06;;;;;;;17.80;10.07;;;;;;;9.90;80.59;94494.88;5041120;28;20419;-76
2023/04/24 03:46:31;;;;;;;15.43;9.00;;;;;;;9.97;81.52;94503.50;5039015;28;20267;-76
2023/04/24 03:48:57;;;;;;;18.70;10.23;;;;;;;9.97;81.33;94503.50;5039465;28;20190;-75
2023/04/24 03:51:22;;;;;;;17.50;9.40;;;;;;;9.85;81.50;94490.28;5040023;28;20635;-75
2023/04/24 03:53:49;;;;;;;17.50;9.90;;;;;;;10.01;81.58;94510.75;5051220;28;20671;-75
2023/04/24 03:56:14;;;;;;;23.20;10.67;;;;;;;10.12;82.09;94514.50;5041902;28;20202;-75
2023/04/24 03:58:40;;;;;;;14.60;9.73;;;;;;;10.24;82.81;94512.00;5040910;28;20203;-79
2023/04/24 04:01:06;;;;;;;15.43;10.00;;;;;;;10.37;82.40;94507.44;5046058;28;20679;-75
2023/04/24 04:03:31;;;;;;;18.97;11.13;;;;;;;10.53;81.33;94506.03;5051014;28;20210;-75
2023/04/24 04:05:57;;;;;;;20.00;10.73;;;;;;;10.57;80.60;94500.09;5039481;28;20568;-75
2023/04/24 04:08:22;;;;;;;15.57;10.40;;;;;;;10.80;80.18;94507.34;5050902;28;20179;-75
2023/04/24 04:10:47;;;;;;;20.57;11.13;;;;;;;10.96;79.13;94509.38;5050991;28;20198;-75
2023/04/24 04:13:13;;;;;;;21.63;10.30;;;;;;;11.07;78.26;94509.66;5036958;28;20251;-76
2023/04/24 04:15:39;;;;;;;17.23;10.10;;;;;;;11.15;78.08;94512.81;5029650;28;20560;-75
2023/04/24 04:18:05;;;;;;;19.90;11.07;;;;;;;11.25;77.90;94510.41;5034811;28;20198;-75
2023/04/24 04:20:30;;;;;;;25.80;11.07;;;;;;;11.34;77.19;94510.91;5036653;28;20176;-75
2023/04/24 04:22:56;;;;;;;18.97;11.50;;;;;;;11.52;77.91;94518.75;5032786;28;20890;-76
2023/04/24 04:25:21;;;;;;;23.93;12.00;;;;;;;11.71;76.59;94520.31;5034805;28;20258;-75
2023/04/24 04:27:50;;;;;;;19.23;11.53;;;;;;;11.67;76.02;94506.00;5033903;28;20180;-75
2023/04/24 04:30:16;;;;;;;18.53;10.97;;;;;;;11.66;76.26;94514.94;5030715;28;20179;-75
2023/04/24 04:32:41;;;;;;;21.33;12.33;;;;;;;11.75;77.61;94525.97;5030991;28;20174;-75
2023/04/24 04:35:07;;;;;;;24.40;11.90;;;;;;;11.72;76.38;94521.13;5030959;28;20176;-75
2023/04/24 04:37:33;;;;;;;23.73;11.83;;;;;;;11.84;75.47;94534.38;5031158;28;20175;-75
2023/04/24 04:39:59;;;;;;;17.30;11.43;;;;;;;11.86;75.80;94527.81;5040737;28;20229;-75
2023/04/24 04:42:26;;;;;;;23.07;12.20;;;;;;;11.84;74.47;94540.47;5036334;28;20199;-75
2023/04/24 04:44:52;;;;;;;22.53;11.03;;;;;;;11.73;74.94;94541.19;5038259;28;20551;-74
2023/04/24 04:47:21;;;;;;;24.80;12.50;;;;;;;11.65;75.09;94534.41;5038469;28;20195;-75
2023/04/24 04:49:46;;;;;;;26.27;12.43;;;;;;;11.82;75.27;94542.50;5029795;28;20179;-74
2023/04/24 04:52:12;;;;;;;23.23;11.73;;;;;;;11.93;74.44;94551.47;5043060;28;20222;-75
2023/04/24 04:54:37;;;;;;;27.43;12.63;;;;;;;11.80;72.90;94520.81;5049334;28;20652;-74
2023/04/24 04:57:03;;;;;;;27.43;13.87;;;;;;;11.85;74.21;94554.44;5032320;28;20168;-75
2023/04/24 04:59:28;;;;;;;21.83;10.90;;;;;;;11.77;74.73;94546.81;5035024;28;20175;-74
2023/04/24 05:01:54;;;;;;;20.53;12.20;;;;;;;12.00;74.99;94560.91;5050286;28;20281;-74
2023/04/24 05:04:19;;;;;;;28.93;11.17;;;;;;;12.28;74.61;94557.59;5022346;28;20624;-74
2023/04/24 05:06:47;;;;;;;26.73;11.70;;;;;;;12.50;72.18;94560.47;5038668;28;20172;-75
2023/04/24 05:09:12;;;;;;;19.63;9.73;;;;;;;12.53;70.44;94567.97;5030251;28;20176;-75
2023/04/24 05:11:37;;;;;;;15.70;8.77;;;;;;;12.54;70.42;94563.47;5030219;28;20195;-75
2023/04/24 05:14:03;;;;;;;13.13;8.07;;;;;;;12.53;70.47;94553.94;5037165;28;20163;-75
2023/04/24 05:16:28;;;;;;;11.17;7.93;;;;;;;12.60;70.88;94562.56;5041860;28;20176;-75
2023/04/24 05:18:54;;;;;;;18.23;8.80;;;;;;;12.68;71.86;94554.28;5033873;28;20742;-75
2023/04/24 05:21:19;;;;;;;18.93;8.53;;;;;;;12.75;71.40;94560.25;5030469;28;20194;-74
2023/04/24 05:23:45;;;;;;;16.97;7.70;;;;;;;12.81;69.21;94554.81;5037431;28;20207;-74
2023/04/24 05:26:10;;;;;;;17.57;8.60;;;;;;;12.86;67.36;94551.50;5034761;28;20195;-75
2023/04/24 05:28:36;;;;;;;13.73;8.70;;;;;;;12.90;67.60;94559.75;5032991;28;20603;-75
2023/04/24 05:31:03;;;;;;;17.13;8.00;;;;;;;13.01;67.81;94557.09;5036986;28;20699;-74
2023/04/24 05:33:28;;;;;;;28.07;8.10;;;;;;;13.23;66.02;94558.09;5019594;28;20176;-75
2023/04/24 05:35:54;;;;;;;18.17;8.13;;;;;;;13.16;64.28;94536.28;5033826;28;20265;-75
2023/04/24 05:38:19;;;;;;;17.20;6.97;;;;;;;13.63;64.93;94559.13;5033725;28;20172;-74
2023/04/24 05:40:48;;;;;;;13.70;5.60;;;;;;;14.22;60.63;94563.06;5033579;28;20657;-74
2023/04/24 05:43:13;;;;;;;9.50;5.70;;;;;;;14.28;58.52;94570.84;5033314;28;20669;-75
2023/04/24 05:45:39;;;;;;;10.63;5.30;;;;;;;14.19;59.05;94574.94;5033647;28;20183;-74
2023/04/24 05:48:05;;;;;;;11.13;5.60;;;;;;;14.51;58.73;94569.91;5044939;28;20178;-75
2023/04/24 05:50:30;;;;;;;14.47;5.93;;;;;;;14.79;60.14;94547.78;5053545;28;20178;-75
2023/04/24 05:52:57;;;;;;;7.23;4.37;;;;;;;15.12;54.22;94572.63;5035481;28;20227;-75
2023/04/24 05:55:24;;;;;;;12.57;4.70;;;;;;;15.11;54.42;94553.25;5035543;28;20567;-74
2023/04/24 05:57:49;;;;;;;9.85;4.25;;;;;;;16.06;53.30;94550.09;5070952;28;20182;-75
2023/04/24 06:00:15;;;;;;;7.07;4.45;;;;;;;17.17;50.46;94559.91;5058504;28;20190;-75
2023/04/24 06:02:41;;;;;;;10.52;5.70;;;;;;;18.12;49.42;94561.31;5053168;28;20195;-75
2023/04/24 06:05:08;;;;;;;7.15;5.22;;;;;;;18.32;46.07;94557.88;5050168;28;20179;-75
2023/04/24 06:07:33;;;;;;;9.05;5.20;;;;;;;19.08;45.75;94568.50;5073532;28;20561;-75
2023/04/24 06:09:59;;;;;;;8.70;5.15;;;;;;;20.05;44.25;94555.56;5073213;28;20178;-75
2023/04/24 06:12:25;;;;;;;7.60;4.50;;;;;;;20.77;43.00;94551.28;5073081;28;20158;-75
2023/04/24 06:14:51;;;;;;;11.07;4.57;;;;;;;21.50;41.99;94565.28;5073058;28;20177;-75
2023/04/24 06:17:16;;;;;;;9.75;4.90;;;;;;;21.57;38.66;94560.38;5073252;28;20553;-75
2023/04/24 06:19:42;;;;;;;10.45;5.10;;;;;;;21.61;38.33;94550.69;5053976;28;20194;-75
2023/04/24 06:22:07;;;;;;;10.65;5.28;;;;;;;21.41;38.28;94542.88;5053114;28;20248;-76
2023/04/24 06:24:34;;;;;;;13.65;5.25;;;;;;;21.06;39.46;94571.59;5053299;28;20177;-76
2023/04/24 06:27:00;;;;;;;10.25;5.13;;;;;;;20.75;40.62;94561.47;5053052;28;20257;-76
2023/04/24 06:29:25;;;;;;;9.85;5.25;;;;;;;20.21;40.62;94551.72;5053311;28;20233;-76
2023/04/24 06:31:51;;;;;;;9.07;5.38;;;;;;;20.26;42.54;94560.47;5053265;28;20178;-76
2023/04/24 06:34:16;;;;;;;10.27;5.85;;;;;;;20.44;41.99;94563.59;5051875;28;20183;-76
2023/04/24 06:36:42;;;;;;;7.80;5.18;;;;;;;20.32;42.08;94551.34;5035007;28;20190;-76
2023/04/24 06:39:07;;;;;;;12.07;4.93;;;;;;;20.57;44.16;94555.75;5052948;28;20183;-76
2023/04/24 06:41:32;;;;;;;6.65;4.88;;;;;;;20.95;43.32;94567.44;5058814;28;20959;-74
2023/04/24 06:43:58;;;;;;;8.18;4.90;;;;;;;21.05;41.28;94550.47;5061986;28;20261;-76
2023/04/24 06:46:25;;;;;;;8.13;4.68;;;;;;;21.49;41.39;94563.69;5053920;28;20187;-77
2023/04/24 06:48:52;;;;;;;10.15;4.93;;;;;;;21.79;42.75;94565.19;5051904;28;20178;-77
2023/04/24 06:51:18;;;;;;;12.85;5.13;;;;;;;22.02;40.26;94559.00;5052576;28;20181;-76
2023/04/24 06:53:43;;;;;;;8.73;4.57;;;;;;;22.07;38.61;94550.88;5049340;28;20168;-76
2023/04/24 06:56:09;;;;;;;8.35;5.03;;;;;;;22.23;39.67;94559.50;5038518;28;20198;-76
2023/04/24 06:58:35;;;;;;;11.57;4.47;;;;;;;22.05;40.10;94561.13;5052055;28;20627;-76
2023/04/24 07:01:00;;;;;;;10.05;4.68;;;;;;;21.81;39.05;94549.59;5047881;28;20750;-76
2023/04/24 07:03:25;;;;;;;8.77;5.10;;;;;;;21.99;39.53;94553.41;5040148;28;20680;-75
2023/04/24 07:05:51;;;;;;;14.10;5.20;;;;;;;21.96;39.90;94527.97;5034873;28;20253;-76
2023/04/24 07:08:17;;;;;;;10.50;5.15;;;;;;;22.02;41.80;94524.16;5034321;28;20163;-75
2023/04/24 07:10:43;;;;;;;6.22;4.22;;;;;;;22.15;40.95;94536.81;5053029;28;20194;-78
2023/04/24 07:13:09;;;;;;;12.02;5.43;;;;;;;22.06;38.33;94535.88;5031016;28;20259;-78
2023/04/24 07:15:35;;;;;;;11.23;5.47;;;;;;;22.26;39.89;94544.72;5040297;28;20266;-75
2023/04/24 07:18:00;;;;;;;9.02;5.38;;;;;;;22.32;39.34;94548.91;5025571;28;20240;-75
2023/04/24 07:20:26;;;;;;;9.90;4.32;;;;;;;22.57;39.48;94529.75;5031983;28;20175;-77
2023/04/24 07:22:53;;;;;;;9.77;4.78;;;;;;;22.69;37.34;94538.13;5023153;28;20207;-76
2023/04/24 07:25:19;;;;;;;9.50;4.28;;;;;;;22.84;39.11;94542.47;5045244;28;20244;-76
2023/04/24 07:27:44;;;;;;;11.80;5.20;;;;;;;22.92;39.57;94533.72;5052466;28;20994;-76
2023/04/24 07:30:10;;;;;;;9.00;4.68;;;;;;;22.91;37.34;94526.78;5043004;28;20648;-75
2023/04/24 07:32:36;;;;;;;10.57;5.22;;;;;;;22.80;40.36;94534.22;5051696;28;20582;-75
2023/04/24 07:35:01;;;;;;;7.20;4.60;;;;;;;22.27;42.33;94527.53;5051677;28;20175;-75
2023/04/24 07:37:28;;;;;;;8.88;5.55;;;;;;;21.95;38.96;94529.06;5051420;28;20178;-76
2023/04/24 07:39:54;;;;;;;10.40;5.38;;;;;;;21.73;40.17;94526.13;5051524;28;20240;-76
2023/04/24 07:42:20;;;;;;;12.68;5.07;;;;;;;21.52;39.26;94528.28;5034916;28;20195;-75
2023/04/24 07:44:47;;;;;;;8.85;4.88;;;;;;;21.28;40.29;94525.59;5034187;28;20669;-76
2023/04/24 07:47:14;;;;;;;7.03;4.63;;;;;;;21.36;40.58;94527.66;5051471;28;20171;-77
2023/04/24 07:49:41;;;;;;;10.43;6.13;;;;;;;21.56;40.42;94526.63;5046254;28;20302;-77
2023/04/24 07:52:06;;;;;;;13.18;6.50;;;;;;;21.37;41.78;94526.56;5040639;28;20341;-77
2023/04/24 07:54:32;;;;;;;11.50;5.95;;;;;;;21.43;43.25;94516.63;5043742;28;20160;-75
2023/04/24 07:56:57;;;;;;;11.98;6.10;;;;;;;21.74;41.42;94519.69;5035176;28;20261;-77
2023/04/24 07:59:23;;;;;;;15.10;6.25;;;;;;;21.84;40.18;94517.69;5036780;28;20258;-77
2023/04/24 08:01:48;;;;;;;13.40;5.00;;;;;;;21.84;39.50;94517.69;5041422;28;20688;-76
2023/04/24 08:04:14;;;;;;;14.00;5.00;;;;;;;21.67;40.08;94517.38;5038532;28;20613;-76
2023/04/24 08:06:40;;;;;;;8.13;4.78;;;;;;;21.85;40.20;94507.75;5031337;28;20763;-76
2023/04/24 08:09:05;;;;;;;11.05;4.53;;;;;;;22.05;41.99;94512.06;5030440;28;20206;-76
2023/04/24 08:11:31;;;;;;;10.45;4.25;;;;;;;22.49;39.24;94511.63;5030438;28;20183;-76
2023/04/24 08:13:57;;;;;;;9.25;4.20;;;;;;;22.67;40.47;94500.03;5030485;28;20182;-77
2023/04/24 08:16:25;;;;;;;10.43;5.15;;;;;;;23.00;38.97;94505.41;5030622;28;20187;-76
2023/04/24 08:18:51;;;;;;;5.57;4.45;;;;;;;22.76;37.80;94500.19;5030097;28;20191;-77
2023/04/24 08:21:18;;;;;;;8.30;4.55;;;;;;;22.69;38.42;94497.88;5028439;28;20180;-76
2023/04/24 08:23:45;;;;;;;9.18;5.03;;;;;;;22.75;39.41;94502.06;5028768;28;20196;-77
2023/04/24 08:26:11;;;;;;;10.45;5.38;;;;;;;22.61;39.61;94477.06;5038162;28;20210;-76
2023/04/24 08:28:36;;;;;;;11.93;6.03;;;;;;;22.65;39.00;94490.72;5048131;28;20202;-77
2023/04/24 08:31:02;;;;;;;11.65;5.18;;;;;;;22.28;38.57;94491.59;5048097;28;20667;-77
2023/04/24 08:33:33;;;;;;;8.43;4.72;;;;;;;22.03;40.76;94474.81;5048065;28;20176;-77
2023/04/24 08:36:00;;;;;;;6.57;4.97;;;;;;;22.17;39.61;94481.03;5050696;28;20183;-77
2023/04/24 08:38:26;;;;;;;7.10;5.20;;;;;;;22.32;39.93;94479.19;5050062;28;20246;-77
2023/04/24 08:40:52;;;;;;;10.75;5.38;;;;;;;22.30;39.11;94470.66;5049902;28;20717;-76
2023/04/24 08:43:18;;;;;;;6.82;4.60;;;;;;;22.27;38.49;94455.94;5049676;28;20206;-76
2023/04/24 08:45:43;;;;;;;5.07;4.57;;;;;;;22.24;42.35;94466.44;5049862;28;20175;-76
2023/04/24 08:48:10;;;;;;;6.80;5.07;;;;;;;21.82;40.74;94460.09;5049743;28;20221;-76
2023/04/24 08:50:36;;;;;;;7.80;5.05;;;;;;;22.07;41.08;94464.28;5050080;28;20189;-76
2023/04/24 08:53:02;;;;;;;8.00;4.68;;;;;;;21.91;40.58;94457.53;5049579;28;20229;-76
2023/04/24 08:55:30;;;;;;;8.15;5.07;;;;;;;21.27;40.45;94454.41;5049849;28;20186;-76
2023/04/24 08:57:56;;;;;;;9.98;5.38;;;;;;;20.82;41.22;94457.59;5051201;28;20648;-76
2023/04/24 09:00:22;;;;;;;8.98;5.40;;;;;;;21.08;41.71;94453.53;5054156;28;20258;-76
2023/04/24 09:02:49;;;;;;;8.20;4.78;;;;;;;21.27;41.77;94454.41;5053939;28;20624;-76
2023/04/24 09:05:18;;;;;;;8.63;5.00;;;;;;;21.70;40.62;94436.41;5054007;28;20179;-77
2023/04/24 09:07:48;;;;;;;8.88;4.38;;;;;;;22.13;41.21;94430.97;5053900;28;20147;-76
2023/04/24 09:10:15;;;;;;;8.40;5.20;;;;;;;22.07;38.94;94424.06;5053928;28;20148;-76
2023/04/24 09:12:41;;;;;;;10.55;4.88;;;;;;;21.93;38.70;94426.69;5053847;28;20148;-76
2023/04/24 09:15:08;;;;;;;17.40;5.40;;;;;;;21.85;40.01;94432.72;5052339;28;20175;-76
2023/04/24 09:17:34;;;;;;;10.20;4.90;;;;;;;21.39;40.30;94429.88;5053492;28;20653;-76
2023/04/24 09:19:59;;;;;;;18.67;4.75;;;;;;;21.22;40.61;94419.66;5053411;28;20192;-76
2023/04/24 09:22:25;;;;;;;13.68;5.75;;;;;;;20.98;42.69;94414.31;5053153;28;20688;-76
2023/04/24 09:25:02;;;;;;;7.80;4.53;;;;;;;21.25;45.83;94415.63;5053141;28;20256;-77
2023/04/24 09:27:28;;;;;;;6.65;4.28;;;;;;;21.55;41.48;94411.69;5045429;28;20187;-76
2023/04/24 09:29:55;;;;;;;9.50;4.68;;;;;;;21.69;42.78;94412.59;5033360;28;20249;-76
2023/04/24 09:32:22;;;;;;;7.57;4.28;;;;;;;21.72;40.45;94403.94;5033345;28;20179;-76
2023/04/24 09:34:48;;;;;;;6.45;3.90;;;;;;;21.33;40.91;94402.38;5033226;28;20172;-76
2023/04/24 09:37:29;;;;;;;7.80;4.90;;;;;;;21.03;42.17;94397.38;5033432;28;20172;-76
2023/04/24 09:40:27;;;;;;;6.53;4.80;;;;;;;20.53;42.44;94418.28;5032992;28;20163;-76
2023/04/24 09:42:55;;;;;;;7.25;4.85;;;;;;;20.32;42.56;94395.50;4999528;28;20223;-76
2023/04/24 09:45:21;;;;;;;7.35;4.72;;;;;;;20.52;43.53;94406.00;5033018;28;20196;-77
2023/04/24 09:47:51;;;;;;;6.10;4.35;;;;;;;20.83;43.49;94384.25;5033036;28;20261;-77
2023/04/24 09:50:17;;;;;;;10.70;4.72;;;;;;;20.94;44.54;94383.84;5033181;28;20176;-77
2023/04/24 09:52:55;;;;;;;13.55;4.53;;;;;;;21.14;41.01;94390.03;5034903;28;20233;-76
2023/04/24 09:55:21;;;;;;;6.22;4.32;;;;;;;21.28;43.35;94377.53;5052982;28;20186;-77
2023/04/24 09:57:51;;;;;;;9.82;4.78;;;;;;;21.42;40.35;94391.81;5052854;28;20163;-76
2023/04/24 10:00:32;;;;;;;4.72;3.95;;;;;;;21.20;40.67;94367.47;5052909;28;20254;-76
2023/04/24 10:03:04;;;;;;;8.05;4.00;;;;;;;21.19;40.30;94388.09;5052723;28;20187;-76
2023/04/24 10:05:29;;;;;;;8.88;4.70;;;;;;;21.07;40.28;94380.47;5052842;28;20221;-76
2023/04/24 10:08:04;;;;;;;6.13;3.80;;;;;;;20.77;41.19;94375.47;5052811;28;20669;-76
2023/04/24 10:10:32;;;;;;;9.50;4.20;;;;;;;20.68;41.78;94372.63;5052819;28;20170;-76
2023/04/24 10:12:57;;;;;;;5.82;3.70;;;;;;;20.49;41.32;94357.66;5052893;28;20270;-76
2023/04/24 10:15:24;;;;;;;16.27;4.15;;;;;;;20.54;43.46;94368.28;5053077;28;20380;-76
2023/04/24 10:17:53;;;;;;;6.22;3.63;;;;;;;20.53;41.33;94345.28;5052738;28;20171;-76
2023/04/24 10:20:25;;;;;;;6.10;3.55;;;;;;;20.71;40.91;94350.69;5052823;28;20599;-76
2023/04/24 10:22:53;;;;;;;5.93;3.72;;;;;;;20.94;40.85;94353.59;5052435;28;20199;-76
2023/04/24 10:25:20;;;;;;;7.22;3.92;;;;;;;21.04;40.29;94348.91;5052441;28;20228;-76
2023/04/24 10:27:46;;;;;;;7.82;4.32;;;;;;;21.03;40.69;94343.84;5052389;28;20163;-76
2023/04/24 10:30:12;;;;;;;6.78;3.65;;;;;;;21.05;40.26;94330.97;5052415;28;20174;-76
2023/04/24 10:32:38;;;;;;;5.82;3.20;;;;;;;20.96;39.94;94341.53;5052324;28;20152;-76
2023/04/24 10:35:07;;;;;;;5.72;3.58;;;;;;;20.90;41.31;94333.88;5052232;28;20673;-76
2023/04/24 10:38:05;;;;;;;7.22;4.07;;;;;;;20.83;40.87;94336.09;5052295;28;20170;-76
2023/04/24 10:40:33;;;;;;;7.47;3.90;;;;;;;20.86;42.06;94340.84;5024577;28;20560;-76
2023/04/24 10:42:59;;;;;;;7.80;4.00;;;;;;;20.95;40.87;94320.41;5052157;28;20680;-76
2023/04/24 10:45:25;;;;;;;10.85;3.80;;;;;;;21.13;41.45;94314.25;5052097;28;20174;-76
2023/04/24 10:48:01;;;;;;;13.82;4.43;;;;;;;21.21;40.45;94316.31;5052030;28;20167;-76
2023/04/24 10:50:30;;;;;;;10.63;4.57;;;;;;;21.28;42.80;94316.75;5051978;28;20163;-77
2023/04/24 10:53:06;;;;;;;5.18;3.70;;;;;;;21.37;42.18;94312.31;5051769;28;20215;-76
2023/04/24 10:55:43;;;;;;;6.93;3.85;;;;;;;21.35;42.45;94324.44;5051896;28;20167;-76
2023/04/24 10:58:09;;;;;;;6.95;3.65;;;;;;;21.16;40.26;94313.69;5033858;28;20175;-76
2023/04/24 11:00:38;;;;;;;6.43;3.60;;;;;;;21.15;42.46;94319.34;5051668;28;20170;-76
2023/04/24 11:03:06;;;;;;;6.47;3.10;;;;;;;20.84;38.86;94301.03;5051527;28;20195;-76
2023/04/24 11:05:53;;;;;;;5.97;3.03;;;;;;;20.47;40.08;94299.09;5051517;28;20181;-76
2023/04/24 11:08:37;;;;;;;7.47;3.50;;;;;;;20.24;40.40;94315.88;5051432;28;20171;-76
2023/04/24 11:11:13;;;;;;;10.00;3.00;;;;;;;20.23;41.52;94319.66;5051726;28;20535;-76
2023/04/24 11:13:54;;;;;;;5.72;2.90;;;;;;;20.13;41.72;94317.09;5051268;28;20201;-76
2023/04/24 11:16:38;;;;;;;4.70;3.38;;;;;;;20.07;42.83;94329.69;5051237;28;20175;-76
2023/04/24 11:19:05;;;;;;;11.52;5.38;;;;;;;20.04;49.96;94362.34;5051074;28;20415;-76
2023/04/24 11:22:07;;;;;;;13.18;4.53;;;;;;;19.74;56.82;94371.41;5051220;28;20170;-76
2023/04/24 11:24:36;;;;;;;5.75;3.72;;;;;;;19.32;59.72;94373.81;5031298;28;20191;-75
2023/04/24 11:27:11;;;;;;;5.45;3.58;;;;;;;19.04;62.87;94370.78;5034439;28;20526;-76